Terminal Aerodrome Forecast
Issued by NWS Sioux Falls, SD

Home | Current Version | Previous Version | Text Only | Print | Product List | Glossary Off
Versions: 1 2 3 4 5 6 7 8 9 10 11 12 13 14 15

386
FTUS43 KFSD 261728
TAFFSD
TAF
KFSD 261728Z 2618/2718 18011KT P6SM FEW250
     FM270200 16007KT P6SM FEW250 PROB30 2709/2711 4SM TSRA OVC040CB
     FM271100 11004KT P6SM BKN110
     FM271200 VRB03KT P6SM SHRA VCTS BKN090CB=

USA.gov is the U.S. government's official web portal to all federal, state and local government web resources and services.